sensor_id;sensor_type;location;lat;lon;timestamp;P1;durP1;ratioP1;P2;durP2;ratioP2
10711;SDS011;5407;51.234;6.804;2023-09-12T00:00:45;11.15;;;7.75;;
10711;SDS011;5407;51.234;6.804;2023-09-12T00:03:13;11.95;;;8.45;;
10711;SDS011;5407;51.234;6.804;2023-09-12T00:05:40;13.75;;;8.18;;
10711;SDS011;5407;51.234;6.804;2023-09-12T00:08:06;16.65;;;8.77;;
10711;SDS011;5407;51.234;6.804;2023-09-12T00:10:33;16.83;;;9.38;;
10711;SDS011;5407;51.234;6.804;2023-09-12T00:13:00;16.55;;;9.25;;
10711;SDS011;5407;51.234;6.804;2023-09-12T00:15:27;16.58;;;9.63;;
10711;SDS011;5407;51.234;6.804;2023-09-12T00:17:56;15.90;;;9.65;;
10711;SDS011;5407;51.234;6.804;2023-09-12T00:20:23;16.50;;;9.45;;
10711;SDS011;5407;51.234;6.804;2023-09-12T00:22:50;15.07;;;9.98;;
10711;SDS011;5407;51.234;6.804;2023-09-12T00:25:18;14.68;;;9.52;;
10711;SDS011;5407;51.234;6.804;2023-09-12T00:27:45;11.40;;;7.90;;
10711;SDS011;5407;51.234;6.804;2023-09-12T00:30:13;19.38;;;8.15;;
10711;SDS011;5407;51.234;6.804;2023-09-12T00:32:40;14.65;;;8.45;;
10711;SDS011;5407;51.234;6.804;2023-09-12T00:35:09;15.05;;;7.88;;
10711;SDS011;5407;51.234;6.804;2023-09-12T00:37:36;16.73;;;8.95;;
10711;SDS011;5407;51.234;6.804;2023-09-12T00:40:03;13.65;;;8.68;;
10711;SDS011;5407;51.234;6.804;2023-09-12T00:42:31;9.35;;;7.80;;
10711;SDS011;5407;51.234;6.804;2023-09-12T00:44:58;13.25;;;7.25;;
10711;SDS011;5407;51.234;6.804;2023-09-12T00:47:25;12.25;;;7.07;;
10711;SDS011;5407;51.234;6.804;2023-09-12T00:49:53;9.38;;;7.03;;
10711;SDS011;5407;51.234;6.804;2023-09-12T00:52:23;12.05;;;6.70;;
10711;SDS011;5407;51.234;6.804;2023-09-12T00:54:51;11.00;;;7.05;;
10711;SDS011;5407;51.234;6.804;2023-09-12T00:57:18;12.15;;;6.80;;
10711;SDS011;5407;51.234;6.804;2023-09-12T00:59:46;11.02;;;5.90;;
10711;SDS011;5407;51.234;6.804;2023-09-12T01:02:14;12.48;;;6.40;;
10711;SDS011;5407;51.234;6.804;2023-09-12T01:04:41;12.85;;;6.07;;
10711;SDS011;5407;51.234;6.804;2023-09-12T01:07:08;10.27;;;6.38;;
10711;SDS011;5407;51.234;6.804;2023-09-12T01:09:37;10.25;;;6.20;;
10711;SDS011;5407;51.234;6.804;2023-09-12T01:12:05;8.60;;;6.32;;
10711;SDS011;5407;51.234;6.804;2023-09-12T01:14:32;9.52;;;5.88;;
10711;SDS011;5407;51.234;6.804;2023-09-12T01:16:59;9.30;;;5.47;;
10711;SDS011;5407;51.234;6.804;2023-09-12T01:19:27;11.10;;;6.90;;
10711;SDS011;5407;51.234;6.804;2023-09-12T01:25:00;10.20;;;7.07;;
10711;SDS011;5407;51.234;6.804;2023-09-12T01:27:42;11.95;;;8.32;;
10711;SDS011;5407;51.234;6.804;2023-09-12T01:30:12;13.27;;;8.98;;
10711;SDS011;5407;51.234;6.804;2023-09-12T01:32:43;15.02;;;9.80;;
10711;SDS011;5407;51.234;6.804;2023-09-12T01:35:10;12.32;;;9.48;;
10711;SDS011;5407;51.234;6.804;2023-09-12T01:37:37;14.18;;;10.07;;
10711;SDS011;5407;51.234;6.804;2023-09-12T01:40:05;18.65;;;10.77;;
10711;SDS011;5407;51.234;6.804;2023-09-12T01:42:35;16.60;;;11.25;;
10711;SDS011;5407;51.234;6.804;2023-09-12T01:45:08;18.02;;;11.30;;
10711;SDS011;5407;51.234;6.804;2023-09-12T01:47:36;16.00;;;10.77;;
10711;SDS011;5407;51.234;6.804;2023-09-12T01:50:07;17.38;;;11.38;;
10711;SDS011;5407;51.234;6.804;2023-09-12T01:52:38;16.15;;;9.82;;
10711;SDS011;5407;51.234;6.804;2023-09-12T01:55:07;14.88;;;10.70;;
10711;SDS011;5407;51.234;6.804;2023-09-12T01:57:35;16.48;;;11.35;;
10711;SDS011;5407;51.234;6.804;2023-09-12T02:00:03;23.33;;;10.75;;
10711;SDS011;5407;51.234;6.804;2023-09-12T02:02:34;16.20;;;11.32;;
10711;SDS011;5407;51.234;6.804;2023-09-12T02:05:04;16.10;;;11.15;;
10711;SDS011;5407;51.234;6.804;2023-09-12T02:07:37;19.10;;;9.82;;
10711;SDS011;5407;51.234;6.804;2023-09-12T02:10:06;14.18;;;11.02;;
10711;SDS011;5407;51.234;6.804;2023-09-12T02:12:33;15.55;;;11.23;;
10711;SDS011;5407;51.234;6.804;2023-09-12T02:15:03;12.05;;;10.18;;
10711;SDS011;5407;51.234;6.804;2023-09-12T02:17:33;15.63;;;11.23;;
10711;SDS011;5407;51.234;6.804;2023-09-12T02:20:00;16.92;;;11.30;;
10711;SDS011;5407;51.234;6.804;2023-09-12T02:22:28;16.42;;;10.40;;
10711;SDS011;5407;51.234;6.804;2023-09-12T02:24:55;16.73;;;11.15;;
10711;SDS011;5407;51.234;6.804;2023-09-12T02:27:22;14.75;;;11.10;;
10711;SDS011;5407;51.234;6.804;2023-09-12T02:29:49;13.35;;;10.70;;
10711;SDS011;5407;51.234;6.804;2023-09-12T02:32:18;13.85;;;10.63;;
10711;SDS011;5407;51.234;6.804;2023-09-12T02:34:44;15.27;;;11.15;;
10711;SDS011;5407;51.234;6.804;2023-09-12T02:37:11;14.95;;;11.68;;
10711;SDS011;5407;51.234;6.804;2023-09-12T02:39:38;14.80;;;11.35;;
10711;SDS011;5407;51.234;6.804;2023-09-12T02:42:05;15.40;;;11.07;;
10711;SDS011;5407;51.234;6.804;2023-09-12T02:44:32;15.48;;;10.93;;
10711;SDS011;5407;51.234;6.804;2023-09-12T02:47:00;12.80;;;9.63;;
10711;SDS011;5407;51.234;6.804;2023-09-12T02:49:28;14.35;;;10.75;;
10711;SDS011;5407;51.234;6.804;2023-09-12T02:51:55;14.55;;;11.13;;
10711;SDS011;5407;51.234;6.804;2023-09-12T02:54:22;14.98;;;11.82;;
10711;SDS011;5407;51.234;6.804;2023-09-12T02:56:49;14.68;;;11.55;;
10711;SDS011;5407;51.234;6.804;2023-09-12T02:59:16;16.33;;;10.90;;
10711;SDS011;5407;51.234;6.804;2023-09-12T03:01:43;15.27;;;11.75;;
10711;SDS011;5407;51.234;6.804;2023-09-12T03:04:10;15.98;;;11.80;;
10711;SDS011;5407;51.234;6.804;2023-09-12T03:06:38;16.50;;;11.27;;
10711;SDS011;5407;51.234;6.804;2023-09-12T03:09:05;15.90;;;12.07;;
10711;SDS011;5407;51.234;6.804;2023-09-12T03:11:32;17.02;;;12.63;;
10711;SDS011;5407;51.234;6.804;2023-09-12T03:14:00;16.13;;;12.82;;
10711;SDS011;5407;51.234;6.804;2023-09-12T03:16:27;16.02;;;12.60;;
10711;SDS011;5407;51.234;6.804;2023-09-12T03:18:54;15.45;;;12.77;;
10711;SDS011;5407;51.234;6.804;2023-09-12T03:21:21;19.50;;;12.10;;
10711;SDS011;5407;51.234;6.804;2023-09-12T03:23:50;15.95;;;12.10;;
10711;SDS011;5407;51.234;6.804;2023-09-12T03:26:17;18.90;;;12.55;;
10711;SDS011;5407;51.234;6.804;2023-09-12T03:28:44;15.32;;;12.98;;
10711;SDS011;5407;51.234;6.804;2023-09-12T03:31:12;18.98;;;13.85;;
10711;SDS011;5407;51.234;6.804;2023-09-12T03:33:41;18.88;;;12.38;;
10711;SDS011;5407;51.234;6.804;2023-09-12T03:36:13;16.10;;;12.25;;
10711;SDS011;5407;51.234;6.804;2023-09-12T03:38:41;17.60;;;12.45;;
10711;SDS011;5407;51.234;6.804;2023-09-12T03:41:09;18.50;;;13.23;;
10711;SDS011;5407;51.234;6.804;2023-09-12T03:43:37;17.63;;;12.98;;
10711;SDS011;5407;51.234;6.804;2023-09-12T03:46:04;14.65;;;12.05;;
10711;SDS011;5407;51.234;6.804;2023-09-12T03:48:31;17.30;;;12.98;;
10711;SDS011;5407;51.234;6.804;2023-09-12T03:50:59;15.60;;;12.05;;
10711;SDS011;5407;51.234;6.804;2023-09-12T03:53:26;13.27;;;11.57;;
10711;SDS011;5407;51.234;6.804;2023-09-12T03:55:53;14.50;;;12.50;;
10711;SDS011;5407;51.234;6.804;2023-09-12T03:58:22;15.07;;;12.35;;
10711;SDS011;5407;51.234;6.804;2023-09-12T04:00:49;15.23;;;12.15;;
10711;SDS011;5407;51.234;6.804;2023-09-12T04:03:16;12.32;;;10.32;;
10711;SDS011;5407;51.234;6.804;2023-09-12T04:05:43;13.60;;;10.60;;
10711;SDS011;5407;51.234;6.804;2023-09-12T04:08:12;15.98;;;9.32;;
10711;SDS011;5407;51.234;6.804;2023-09-12T04:10:39;14.38;;;9.82;;
10711;SDS011;5407;51.234;6.804;2023-09-12T04:13:06;11.30;;;9.30;;
10711;SDS011;5407;51.234;6.804;2023-09-12T04:15:34;13.27;;;9.05;;
10711;SDS011;5407;51.234;6.804;2023-09-12T04:18:01;15.27;;;9.40;;
10711;SDS011;5407;51.234;6.804;2023-09-12T04:20:28;12.10;;;8.15;;
10711;SDS011;5407;51.234;6.804;2023-09-12T04:22:55;9.73;;;8.18;;
10711;SDS011;5407;51.234;6.804;2023-09-12T04:25:22;11.68;;;7.65;;
10711;SDS011;5407;51.234;6.804;2023-09-12T04:27:49;10.57;;;8.35;;
10711;SDS011;5407;51.234;6.804;2023-09-12T04:30:16;7.88;;;7.07;;
10711;SDS011;5407;51.234;6.804;2023-09-12T04:32:45;9.05;;;7.40;;
10711;SDS011;5407;51.234;6.804;2023-09-12T04:35:12;8.75;;;7.43;;
10711;SDS011;5407;51.234;6.804;2023-09-12T04:37:39;10.20;;;7.85;;
10711;SDS011;5407;51.234;6.804;2023-09-12T04:40:06;10.18;;;7.57;;
10711;SDS011;5407;51.234;6.804;2023-09-12T04:42:34;12.52;;;7.53;;
10711;SDS011;5407;51.234;6.804;2023-09-12T04:45:01;9.73;;;7.20;;
10711;SDS011;5407;51.234;6.804;2023-09-12T04:47:29;11.50;;;7.38;;
10711;SDS011;5407;51.234;6.804;2023-09-12T04:49:57;10.48;;;7.10;;
10711;SDS011;5407;51.234;6.804;2023-09-12T04:52:25;9.60;;;7.78;;
10711;SDS011;5407;51.234;6.804;2023-09-12T04:54:53;11.57;;;7.22;;
10711;SDS011;5407;51.234;6.804;2023-09-12T04:57:20;11.20;;;7.07;;
10711;SDS011;5407;51.234;6.804;2023-09-12T04:59:47;11.10;;;6.80;;
10711;SDS011;5407;51.234;6.804;2023-09-12T05:02:14;9.20;;;6.05;;
10711;SDS011;5407;51.234;6.804;2023-09-12T05:04:41;8.57;;;6.05;;
10711;SDS011;5407;51.234;6.804;2023-09-12T05:07:10;8.15;;;6.50;;
10711;SDS011;5407;51.234;6.804;2023-09-12T05:09:37;8.50;;;6.50;;
10711;SDS011;5407;51.234;6.804;2023-09-12T05:12:04;9.75;;;7.10;;
10711;SDS011;5407;51.234;6.804;2023-09-12T05:14:31;8.25;;;6.68;;
10711;SDS011;5407;51.234;6.804;2023-09-12T05:16:58;8.07;;;6.40;;
10711;SDS011;5407;51.234;6.804;2023-09-12T05:19:27;8.27;;;6.30;;
10711;SDS011;5407;51.234;6.804;2023-09-12T05:21:56;10.52;;;6.60;;
10711;SDS011;5407;51.234;6.804;2023-09-12T05:24:25;10.52;;;6.57;;
10711;SDS011;5407;51.234;6.804;2023-09-12T05:26:52;11.13;;;6.90;;
10711;SDS011;5407;51.234;6.804;2023-09-12T05:29:19;11.60;;;6.82;;
10711;SDS011;5407;51.234;6.804;2023-09-12T05:31:45;7.32;;;6.22;;
10711;SDS011;5407;51.234;6.804;2023-09-12T05:34:12;12.10;;;6.88;;
10711;SDS011;5407;51.234;6.804;2023-09-12T05:36:39;9.15;;;6.60;;
10711;SDS011;5407;51.234;6.804;2023-09-12T05:39:06;8.25;;;5.85;;
10711;SDS011;5407;51.234;6.804;2023-09-12T05:41:36;7.05;;;5.57;;
10711;SDS011;5407;51.234;6.804;2023-09-12T05:44:03;8.15;;;6.05;;
10711;SDS011;5407;51.234;6.804;2023-09-12T05:46:30;12.75;;;6.70;;
10711;SDS011;5407;51.234;6.804;2023-09-12T05:48:57;10.48;;;8.07;;
10711;SDS011;5407;51.234;6.804;2023-09-12T05:51:24;11.07;;;8.80;;
10711;SDS011;5407;51.234;6.804;2023-09-12T05:53:51;15.13;;;10.65;;
10711;SDS011;5407;51.234;6.804;2023-09-12T05:56:18;23.70;;;14.75;;
10711;SDS011;5407;51.234;6.804;2023-09-12T05:58:47;19.30;;;15.13;;
10711;SDS011;5407;51.234;6.804;2023-09-12T06:01:15;20.65;;;14.73;;
10711;SDS011;5407;51.234;6.804;2023-09-12T06:03:42;15.23;;;11.52;;
10711;SDS011;5407;51.234;6.804;2023-09-12T06:06:09;13.95;;;11.18;;
10711;SDS011;5407;51.234;6.804;2023-09-12T06:08:37;21.25;;;13.07;;
10711;SDS011;5407;51.234;6.804;2023-09-12T06:11:04;14.68;;;9.50;;
10711;SDS011;5407;51.234;6.804;2023-09-12T06:13:31;16.45;;;9.50;;
10711;SDS011;5407;51.234;6.804;2023-09-12T06:15:59;12.43;;;10.13;;
10711;SDS011;5407;51.234;6.804;2023-09-12T06:18:26;13.50;;;10.18;;
10711;SDS011;5407;51.234;6.804;2023-09-12T06:20:55;14.65;;;10.57;;
10711;SDS011;5407;51.234;6.804;2023-09-12T06:23:22;16.73;;;12.02;;
10711;SDS011;5407;51.234;6.804;2023-09-12T06:25:49;15.30;;;10.80;;
10711;SDS011;5407;51.234;6.804;2023-09-12T06:28:24;15.27;;;9.10;;
10711;SDS011;5407;51.234;6.804;2023-09-12T06:30:52;16.67;;;10.98;;
10711;SDS011;5407;51.234;6.804;2023-09-12T06:33:20;9.68;;;7.78;;
10711;SDS011;5407;51.234;6.804;2023-09-12T06:35:48;14.93;;;9.00;;
10711;SDS011;5407;51.234;6.804;2023-09-12T06:38:15;15.10;;;8.98;;
10711;SDS011;5407;51.234;6.804;2023-09-12T06:40:42;12.93;;;8.20;;
10711;SDS011;5407;51.234;6.804;2023-09-12T06:43:09;11.73;;;7.75;;
10711;SDS011;5407;51.234;6.804;2023-09-12T06:45:36;11.43;;;7.40;;
10711;SDS011;5407;51.234;6.804;2023-09-12T06:48:04;11.43;;;7.55;;
10711;SDS011;5407;51.234;6.804;2023-09-12T06:50:32;8.90;;;6.85;;
10711;SDS011;5407;51.234;6.804;2023-09-12T06:52:59;9.13;;;6.85;;
10711;SDS011;5407;51.234;6.804;2023-09-12T06:55:27;10.68;;;6.15;;
10711;SDS011;5407;51.234;6.804;2023-09-12T06:57:54;7.97;;;5.18;;
10711;SDS011;5407;51.234;6.804;2023-09-12T07:00:21;7.55;;;4.78;;
10711;SDS011;5407;51.234;6.804;2023-09-12T07:02:49;5.60;;;4.55;;
10711;SDS011;5407;51.234;6.804;2023-09-12T07:05:16;8.07;;;4.40;;
10711;SDS011;5407;51.234;6.804;2023-09-12T07:07:45;6.97;;;4.18;;
10711;SDS011;5407;51.234;6.804;2023-09-12T07:10:11;5.13;;;4.10;;
10711;SDS011;5407;51.234;6.804;2023-09-12T07:12:38;6.63;;;4.05;;
10711;SDS011;5407;51.234;6.804;2023-09-12T07:15:06;7.03;;;4.47;;
10711;SDS011;5407;51.234;6.804;2023-09-12T07:17:34;5.72;;;3.90;;
10711;SDS011;5407;51.234;6.804;2023-09-12T07:20:01;6.68;;;4.03;;
10711;SDS011;5407;51.234;6.804;2023-09-12T07:22:29;5.40;;;3.95;;
10711;SDS011;5407;51.234;6.804;2023-09-12T07:25:00;7.40;;;4.00;;
10711;SDS011;5407;51.234;6.804;2023-09-12T07:27:28;5.68;;;3.90;;
10711;SDS011;5407;51.234;6.804;2023-09-12T07:29:55;7.72;;;3.90;;
10711;SDS011;5407;51.234;6.804;2023-09-12T07:32:22;7.60;;;4.30;;
10711;SDS011;5407;51.234;6.804;2023-09-12T07:34:49;4.68;;;3.75;;
10711;SDS011;5407;51.234;6.804;2023-09-12T07:37:16;7.82;;;4.55;;
10711;SDS011;5407;51.234;6.804;2023-09-12T07:39:43;7.82;;;4.35;;
10711;SDS011;5407;51.234;6.804;2023-09-12T07:42:11;4.95;;;4.00;;
10711;SDS011;5407;51.234;6.804;2023-09-12T07:44:38;6.60;;;4.32;;
10711;SDS011;5407;51.234;6.804;2023-09-12T07:47:05;12.48;;;4.85;;
10711;SDS011;5407;51.234;6.804;2023-09-12T07:49:33;9.05;;;4.30;;
10711;SDS011;5407;51.234;6.804;2023-09-12T07:52:01;6.95;;;4.28;;
10711;SDS011;5407;51.234;6.804;2023-09-12T07:54:28;7.30;;;4.90;;
10711;SDS011;5407;51.234;6.804;2023-09-12T07:56:56;8.57;;;4.50;;
10711;SDS011;5407;51.234;6.804;2023-09-12T07:59:24;6.68;;;3.67;;
10711;SDS011;5407;51.234;6.804;2023-09-12T08:01:51;6.38;;;4.13;;
10711;SDS011;5407;51.234;6.804;2023-09-12T08:04:18;6.82;;;3.63;;
10711;SDS011;5407;51.234;6.804;2023-09-12T08:06:45;6.57;;;3.58;;
10711;SDS011;5407;51.234;6.804;2023-09-12T08:09:12;6.97;;;3.65;;
10711;SDS011;5407;51.234;6.804;2023-09-12T08:11:39;5.05;;;3.40;;
10711;SDS011;5407;51.234;6.804;2023-09-12T08:14:05;5.90;;;3.67;;
10711;SDS011;5407;51.234;6.804;2023-09-12T08:16:34;7.68;;;3.90;;
10711;SDS011;5407;51.234;6.804;2023-09-12T08:19:01;5.80;;;3.60;;
10711;SDS011;5407;51.234;6.804;2023-09-12T08:21:27;5.80;;;3.47;;
10711;SDS011;5407;51.234;6.804;2023-09-12T08:23:55;6.38;;;3.50;;
10711;SDS011;5407;51.234;6.804;2023-09-12T08:26:22;8.63;;;3.70;;
10711;SDS011;5407;51.234;6.804;2023-09-12T08:28:49;5.90;;;3.55;;
10711;SDS011;5407;51.234;6.804;2023-09-12T08:31:16;5.25;;;3.45;;
10711;SDS011;5407;51.234;6.804;2023-09-12T08:33:44;5.40;;;2.88;;
10711;SDS011;5407;51.234;6.804;2023-09-12T08:36:11;5.80;;;2.78;;
10711;SDS011;5407;51.234;6.804;2023-09-12T08:38:38;4.75;;;2.83;;
10711;SDS011;5407;51.234;6.804;2023-09-12T08:41:05;3.97;;;2.55;;
10711;SDS011;5407;51.234;6.804;2023-09-12T08:43:32;4.65;;;2.78;;
10711;SDS011;5407;51.234;6.804;2023-09-12T08:45:59;3.78;;;2.50;;
10711;SDS011;5407;51.234;6.804;2023-09-12T08:48:26;4.85;;;2.30;;
10711;SDS011;5407;51.234;6.804;2023-09-12T08:50:58;5.15;;;2.42;;
10711;SDS011;5407;51.234;6.804;2023-09-12T08:53:25;4.03;;;2.33;;
10711;SDS011;5407;51.234;6.804;2023-09-12T08:55:52;6.70;;;2.17;;
10711;SDS011;5407;51.234;6.804;2023-09-12T08:58:19;4.78;;;2.33;;
10711;SDS011;5407;51.234;6.804;2023-09-12T09:00:47;3.15;;;1.80;;
10711;SDS011;5407;51.234;6.804;2023-09-12T09:03:15;2.78;;;1.90;;
10711;SDS011;5407;51.234;6.804;2023-09-12T09:05:42;6.13;;;2.13;;
10711;SDS011;5407;51.234;6.804;2023-09-12T09:08:12;4.70;;;1.98;;
10711;SDS011;5407;51.234;6.804;2023-09-12T09:10:40;3.72;;;1.85;;
10711;SDS011;5407;51.234;6.804;2023-09-12T09:13:21;5.15;;;2.28;;
10711;SDS011;5407;51.234;6.804;2023-09-12T09:15:48;3.53;;;2.20;;
10711;SDS011;5407;51.234;6.804;2023-09-12T09:18:15;5.93;;;4.93;;
10711;SDS011;5407;51.234;6.804;2023-09-12T09:20:42;10.65;;;6.82;;
10711;SDS011;5407;51.234;6.804;2023-09-12T09:23:10;6.85;;;5.80;;
10711;SDS011;5407;51.234;6.804;2023-09-12T09:25:39;6.13;;;5.15;;
10711;SDS011;5407;51.234;6.804;2023-09-12T09:28:15;5.00;;;3.58;;
10711;SDS011;5407;51.234;6.804;2023-09-12T09:30:43;5.35;;;4.35;;
10711;SDS011;5407;51.234;6.804;2023-09-12T09:33:12;6.95;;;3.95;;
10711;SDS011;5407;51.234;6.804;2023-09-12T09:35:40;4.85;;;3.40;;
10711;SDS011;5407;51.234;6.804;2023-09-12T09:38:08;6.05;;;2.90;;
10711;SDS011;5407;51.234;6.804;2023-09-12T09:40:36;2.70;;;2.50;;
10711;SDS011;5407;51.234;6.804;2023-09-12T09:43:03;3.05;;;2.30;;
10711;SDS011;5407;51.234;6.804;2023-09-12T09:45:30;6.18;;;3.88;;
10711;SDS011;5407;51.234;6.804;2023-09-12T09:47:58;3.47;;;2.65;;
10711;SDS011;5407;51.234;6.804;2023-09-12T09:50:31;7.80;;;2.45;;
10711;SDS011;5407;51.234;6.804;2023-09-12T09:53:00;4.13;;;3.35;;
10711;SDS011;5407;51.234;6.804;2023-09-12T09:55:29;6.43;;;3.83;;
10711;SDS011;5407;51.234;6.804;2023-09-12T09:57:58;3.72;;;3.25;;
10711;SDS011;5407;51.234;6.804;2023-09-12T10:00:25;3.42;;;2.72;;
10711;SDS011;5407;51.234;6.804;2023-09-12T10:02:55;3.92;;;2.50;;
10711;SDS011;5407;51.234;6.804;2023-09-12T10:05:24;3.78;;;2.00;;
10711;SDS011;5407;51.234;6.804;2023-09-12T10:07:54;3.63;;;2.50;;
10711;SDS011;5407;51.234;6.804;2023-09-12T10:10:24;1.73;;;1.63;;
10711;SDS011;5407;51.234;6.804;2023-09-12T10:12:55;1.92;;;1.73;;
10711;SDS011;5407;51.234;6.804;2023-09-12T10:15:25;3.13;;;1.70;;
10711;SDS011;5407;51.234;6.804;2023-09-12T10:17:56;2.05;;;1.90;;
10711;SDS011;5407;51.234;6.804;2023-09-12T10:20:25;2.97;;;1.77;;
10711;SDS011;5407;51.234;6.804;2023-09-12T10:22:56;1.80;;;1.70;;
10711;SDS011;5407;51.234;6.804;2023-09-12T10:25:32;3.42;;;1.70;;
10711;SDS011;5407;51.234;6.804;2023-09-12T10:28:03;1.98;;;1.60;;
10711;SDS011;5407;51.234;6.804;2023-09-12T10:30:33;4.70;;;1.73;;
10711;SDS011;5407;51.234;6.804;2023-09-12T10:33:00;2.53;;;1.73;;
10711;SDS011;5407;51.234;6.804;2023-09-12T10:35:29;3.60;;;1.92;;
10711;SDS011;5407;51.234;6.804;2023-09-12T10:37:58;2.95;;;1.80;;
10711;SDS011;5407;51.234;6.804;2023-09-12T10:40:29;5.40;;;2.10;;
10711;SDS011;5407;51.234;6.804;2023-09-12T10:42:57;2.53;;;1.60;;
10711;SDS011;5407;51.234;6.804;2023-09-12T10:45:26;2.63;;;2.20;;
10711;SDS011;5407;51.234;6.804;2023-09-12T10:47:56;4.05;;;2.50;;
10711;SDS011;5407;51.234;6.804;2023-09-12T10:50:23;2.65;;;2.30;;
10711;SDS011;5407;51.234;6.804;2023-09-12T10:52:50;6.00;;;2.60;;
10711;SDS011;5407;51.234;6.804;2023-09-12T10:55:18;3.80;;;2.00;;
10711;SDS011;5407;51.234;6.804;2023-09-12T10:57:59;2.28;;;1.90;;
10711;SDS011;5407;51.234;6.804;2023-09-12T11:00:27;2.75;;;2.13;;
10711;SDS011;5407;51.234;6.804;2023-09-12T11:02:59;2.92;;;2.10;;
10711;SDS011;5407;51.234;6.804;2023-09-12T11:05:50;4.72;;;2.30;;
10711;SDS011;5407;51.234;6.804;2023-09-12T11:08:19;2.83;;;2.10;;
10711;SDS011;5407;51.234;6.804;2023-09-12T11:10:48;2.78;;;2.28;;
10711;SDS011;5407;51.234;6.804;2023-09-12T11:13:45;3.65;;;2.28;;
10711;SDS011;5407;51.234;6.804;2023-09-12T11:16:13;2.90;;;2.40;;
10711;SDS011;5407;51.234;6.804;2023-09-12T11:21:45;3.78;;;2.78;;
10711;SDS011;5407;51.234;6.804;2023-09-12T11:24:13;3.63;;;3.28;;
10711;SDS011;5407;51.234;6.804;2023-09-12T11:29:27;3.85;;;3.50;;
10711;SDS011;5407;51.234;6.804;2023-09-12T11:31:56;5.07;;;3.92;;
10711;SDS011;5407;51.234;6.804;2023-09-12T11:34:28;5.22;;;4.07;;
10711;SDS011;5407;51.234;6.804;2023-09-12T11:36:57;4.05;;;3.65;;
10711;SDS011;5407;51.234;6.804;2023-09-12T11:39:28;4.82;;;3.90;;
10711;SDS011;5407;51.234;6.804;2023-09-12T11:41:55;5.47;;;4.07;;
10711;SDS011;5407;51.234;6.804;2023-09-12T11:44:23;4.32;;;3.92;;
10711;SDS011;5407;51.234;6.804;2023-09-12T11:46:51;4.13;;;3.72;;
10711;SDS011;5407;51.234;6.804;2023-09-12T11:49:18;5.38;;;4.00;;
10711;SDS011;5407;51.234;6.804;2023-09-12T11:51:48;4.93;;;4.32;;
10711;SDS011;5407;51.234;6.804;2023-09-12T11:54:17;5.13;;;4.57;;
10711;SDS011;5407;51.234;6.804;2023-09-12T11:56:46;11.60;;;10.52;;
10711;SDS011;5407;51.234;6.804;2023-09-12T11:59:14;6.13;;;5.55;;
10711;SDS011;5407;51.234;6.804;2023-09-12T12:01:44;9.60;;;6.95;;
10711;SDS011;5407;51.234;6.804;2023-09-12T12:04:12;5.57;;;5.07;;
10711;SDS011;5407;51.234;6.804;2023-09-12T12:06:39;5.53;;;3.80;;
10711;SDS011;5407;51.234;6.804;2023-09-12T12:09:08;4.15;;;3.58;;
10711;SDS011;5407;51.234;6.804;2023-09-12T12:11:35;5.30;;;3.60;;
10711;SDS011;5407;51.234;6.804;2023-09-12T12:14:11;5.10;;;3.40;;
10711;SDS011;5407;51.234;6.804;2023-09-12T12:16:40;5.63;;;5.13;;
10711;SDS011;5407;51.234;6.804;2023-09-12T12:19:07;6.35;;;4.35;;
10711;SDS011;5407;51.234;6.804;2023-09-12T12:21:34;4.85;;;4.40;;
10711;SDS011;5407;51.234;6.804;2023-09-12T12:24:01;3.90;;;3.60;;
10711;SDS011;5407;51.234;6.804;2023-09-12T12:26:31;4.68;;;3.97;;
10711;SDS011;5407;51.234;6.804;2023-09-12T12:28:58;4.85;;;3.83;;
10711;SDS011;5407;51.234;6.804;2023-09-12T12:31:26;6.57;;;3.80;;
10711;SDS011;5407;51.234;6.804;2023-09-12T12:33:53;4.53;;;4.10;;
10711;SDS011;5407;51.234;6.804;2023-09-12T12:36:21;5.25;;;4.63;;
10711;SDS011;5407;51.234;6.804;2023-09-12T12:38:48;6.35;;;4.00;;
10711;SDS011;5407;51.234;6.804;2023-09-12T12:41:16;4.75;;;3.72;;
10711;SDS011;5407;51.234;6.804;2023-09-12T12:43:50;5.03;;;3.65;;
10711;SDS011;5407;51.234;6.804;2023-09-12T12:46:18;4.00;;;3.65;;
10711;SDS011;5407;51.234;6.804;2023-09-12T12:48:47;4.10;;;3.75;;
10711;SDS011;5407;51.234;6.804;2023-09-12T12:51:14;4.07;;;3.78;;
10711;SDS011;5407;51.234;6.804;2023-09-12T12:53:44;4.63;;;4.20;;
10711;SDS011;5407;51.234;6.804;2023-09-12T12:56:12;5.10;;;4.60;;
10711;SDS011;5407;51.234;6.804;2023-09-12T12:58:45;5.53;;;5.03;;
10711;SDS011;5407;51.234;6.804;2023-09-12T13:01:15;11.45;;;5.03;;
10711;SDS011;5407;51.234;6.804;2023-09-12T13:03:43;5.25;;;4.68;;
10711;SDS011;5407;51.234;6.804;2023-09-12T13:06:10;5.15;;;4.65;;
10711;SDS011;5407;51.234;6.804;2023-09-12T13:08:42;5.97;;;4.45;;
10711;SDS011;5407;51.234;6.804;2023-09-12T13:11:10;5.00;;;4.50;;
10711;SDS011;5407;51.234;6.804;2023-09-12T13:13:39;5.03;;;4.55;;
10711;SDS011;5407;51.234;6.804;2023-09-12T13:16:08;6.75;;;4.30;;
10711;SDS011;5407;51.234;6.804;2023-09-12T13:18:38;6.22;;;4.80;;
10711;SDS011;5407;51.234;6.804;2023-09-12T13:21:05;8.70;;;5.10;;
10711;SDS011;5407;51.234;6.804;2023-09-12T13:23:33;5.30;;;4.80;;
10711;SDS011;5407;51.234;6.804;2023-09-12T13:26:00;5.43;;;4.93;;
10711;SDS011;5407;51.234;6.804;2023-09-12T13:28:28;7.03;;;5.65;;
10711;SDS011;5407;51.234;6.804;2023-09-12T13:30:55;6.50;;;5.60;;
10711;SDS011;5407;51.234;6.804;2023-09-12T13:33:22;6.70;;;5.32;;
10711;SDS011;5407;51.234;6.804;2023-09-12T13:35:51;4.45;;;4.05;;
10711;SDS011;5407;51.234;6.804;2023-09-12T13:38:18;5.25;;;4.20;;
10711;SDS011;5407;51.234;6.804;2023-09-12T13:40:46;5.40;;;4.00;;
10711;SDS011;5407;51.234;6.804;2023-09-12T13:43:13;6.30;;;4.60;;
10711;SDS011;5407;51.234;6.804;2023-09-12T13:45:40;9.23;;;5.55;;
10711;SDS011;5407;51.234;6.804;2023-09-12T13:48:07;5.25;;;4.47;;
10711;SDS011;5407;51.234;6.804;2023-09-12T13:50:34;5.10;;;4.07;;
10711;SDS011;5407;51.234;6.804;2023-09-12T13:53:03;5.00;;;4.50;;
10711;SDS011;5407;51.234;6.804;2023-09-12T13:55:32;5.05;;;4.35;;
10711;SDS011;5407;51.234;6.804;2023-09-12T13:58:00;7.07;;;4.85;;
10711;SDS011;5407;51.234;6.804;2023-09-12T14:00:28;5.93;;;4.30;;
10711;SDS011;5407;51.234;6.804;2023-09-12T14:02:55;6.28;;;4.47;;
10711;SDS011;5407;51.234;6.804;2023-09-12T14:05:22;6.65;;;4.78;;
10711;SDS011;5407;51.234;6.804;2023-09-12T14:07:50;6.90;;;5.25;;
10711;SDS011;5407;51.234;6.804;2023-09-12T14:10:18;6.35;;;5.05;;
10711;SDS011;5407;51.234;6.804;2023-09-12T14:12:45;7.53;;;5.40;;
10711;SDS011;5407;51.234;6.804;2023-09-12T14:15:12;7.05;;;5.30;;
10711;SDS011;5407;51.234;6.804;2023-09-12T14:17:40;6.90;;;5.85;;
10711;SDS011;5407;51.234;6.804;2023-09-12T14:20:08;7.35;;;5.63;;
10711;SDS011;5407;51.234;6.804;2023-09-12T14:22:35;8.45;;;4.90;;
10711;SDS011;5407;51.234;6.804;2023-09-12T14:25:03;6.70;;;5.40;;
10711;SDS011;5407;51.234;6.804;2023-09-12T14:27:32;5.97;;;4.57;;
10711;SDS011;5407;51.234;6.804;2023-09-12T14:29:59;5.90;;;5.30;;
10711;SDS011;5407;51.234;6.804;2023-09-12T14:32:26;5.88;;;4.88;;
10711;SDS011;5407;51.234;6.804;2023-09-12T14:34:52;5.75;;;5.22;;
10711;SDS011;5407;51.234;6.804;2023-09-12T14:37:19;5.53;;;5.00;;
10711;SDS011;5407;51.234;6.804;2023-09-12T14:39:48;5.18;;;4.78;;
10711;SDS011;5407;51.234;6.804;2023-09-12T14:42:14;6.95;;;5.93;;
10711;SDS011;5407;51.234;6.804;2023-09-12T14:44:43;10.82;;;6.40;;
10711;SDS011;5407;51.234;6.804;2023-09-12T14:47:10;9.68;;;6.43;;
10711;SDS011;5407;51.234;6.804;2023-09-12T14:49:37;7.78;;;5.95;;
10711;SDS011;5407;51.234;6.804;2023-09-12T14:52:04;7.50;;;6.05;;
10711;SDS011;5407;51.234;6.804;2023-09-12T14:54:31;7.63;;;6.75;;
10711;SDS011;5407;51.234;6.804;2023-09-12T14:56:58;6.95;;;6.28;;
10711;SDS011;5407;51.234;6.804;2023-09-12T14:59:25;10.35;;;5.57;;
10711;SDS011;5407;51.234;6.804;2023-09-12T15:01:53;6.93;;;6.22;;
10711;SDS011;5407;51.234;6.804;2023-09-12T15:04:20;6.65;;;5.80;;
10711;SDS011;5407;51.234;6.804;2023-09-12T15:06:47;6.40;;;5.47;;